sensor_id;sensor_type;location;lat;lon;timestamp;temperature;humidity
6260;DHT22;3163;51.516;4.000;2023-02-27T00:00:31;7.70;99.90
6260;DHT22;3163;51.516;4.000;2023-02-27T00:02:57;7.80;99.90
6260;DHT22;3163;51.516;4.000;2023-02-27T00:05:23;7.70;99.90
6260;DHT22;3163;51.516;4.000;2023-02-27T00:07:49;7.70;99.90
6260;DHT22;3163;51.516;4.000;2023-02-27T00:10:16;7.60;99.90
6260;DHT22;3163;51.516;4.000;2023-02-27T00:12:43;7.60;99.90
6260;DHT22;3163;51.516;4.000;2023-02-27T00:15:17;7.60;99.90
6260;DHT22;3163;51.516;4.000;2023-02-27T00:17:44;7.60;99.90
6260;DHT22;3163;51.516;4.000;2023-02-27T00:20:11;7.60;99.90
6260;DHT22;3163;51.516;4.000;2023-02-27T00:22:39;7.60;99.90
6260;DHT22;3163;51.516;4.000;2023-02-27T00:25:05;7.60;99.90
6260;DHT22;3163;51.516;4.000;2023-02-27T00:27:31;7.70;99.90
6260;DHT22;3163;51.516;4.000;2023-02-27T00:29:58;7.70;99.90
6260;DHT22;3163;51.516;4.000;2023-02-27T00:32:23;7.70;99.90
6260;DHT22;3163;51.516;4.000;2023-02-27T00:34:49;7.60;99.90
6260;DHT22;3163;51.516;4.000;2023-02-27T00:37:15;7.60;99.90
6260;DHT22;3163;51.516;4.000;2023-02-27T00:39:41;7.70;99.90
6260;DHT22;3163;51.516;4.000;2023-02-27T00:42:06;7.70;99.90
6260;DHT22;3163;51.516;4.000;2023-02-27T00:44:32;7.70;99.90
6260;DHT22;3163;51.516;4.000;2023-02-27T00:46:58;7.70;99.90
6260;DHT22;3163;51.516;4.000;2023-02-27T00:49:23;7.70;99.90
6260;DHT22;3163;51.516;4.000;2023-02-27T00:51:50;7.70;99.90
6260;DHT22;3163;51.516;4.000;2023-02-27T00:54:15;7.70;99.90
6260;DHT22;3163;51.516;4.000;2023-02-27T00:56:41;7.70;99.90
6260;DHT22;3163;51.516;4.000;2023-02-27T00:59:07;7.70;99.90
6260;DHT22;3163;51.516;4.000;2023-02-27T01:01:33;7.70;99.90
6260;DHT22;3163;51.516;4.000;2023-02-27T01:03:59;7.60;99.90
6260;DHT22;3163;51.516;4.000;2023-02-27T01:06:24;7.70;99.90
6260;DHT22;3163;51.516;4.000;2023-02-27T01:08:50;7.60;99.90
6260;DHT22;3163;51.516;4.000;2023-02-27T01:11:16;7.60;99.90
6260;DHT22;3163;51.516;4.000;2023-02-27T01:13:42;7.60;99.90
6260;DHT22;3163;51.516;4.000;2023-02-27T01:16:08;7.60;99.90
6260;DHT22;3163;51.516;4.000;2023-02-27T01:18:34;7.60;99.90
6260;DHT22;3163;51.516;4.000;2023-02-27T01:21:00;7.60;99.90
6260;DHT22;3163;51.516;4.000;2023-02-27T01:23:26;7.60;99.90
6260;DHT22;3163;51.516;4.000;2023-02-27T01:25:51;7.60;99.90
6260;DHT22;3163;51.516;4.000;2023-02-27T01:28:17;7.60;99.90
6260;DHT22;3163;51.516;4.000;2023-02-27T01:30:43;7.60;99.90
6260;DHT22;3163;51.516;4.000;2023-02-27T01:33:09;7.60;99.90
6260;DHT22;3163;51.516;4.000;2023-02-27T01:35:35;7.60;99.90
6260;DHT22;3163;51.516;4.000;2023-02-27T01:38:01;7.60;99.90
6260;DHT22;3163;51.516;4.000;2023-02-27T01:40:26;7.60;99.90
6260;DHT22;3163;51.516;4.000;2023-02-27T01:42:52;7.60;99.90
6260;DHT22;3163;51.516;4.000;2023-02-27T01:45:38;7.60;99.90
6260;DHT22;3163;51.516;4.000;2023-02-27T01:48:14;7.60;99.90
6260;DHT22;3163;51.516;4.000;2023-02-27T01:50:48;7.60;99.90
6260;DHT22;3163;51.516;4.000;2023-02-27T01:53:16;7.60;99.90
6260;DHT22;3163;51.516;4.000;2023-02-27T01:55:42;7.60;99.90
6260;DHT22;3163;51.516;4.000;2023-02-27T01:58:10;7.60;99.90
6260;DHT22;3163;51.516;4.000;2023-02-27T02:00:37;7.60;99.90
6260;DHT22;3163;51.516;4.000;2023-02-27T02:03:24;7.60;99.90
6260;DHT22;3163;51.516;4.000;2023-02-27T02:05:54;7.60;99.90
6260;DHT22;3163;51.516;4.000;2023-02-27T02:08:22;7.60;99.90
6260;DHT22;3163;51.516;4.000;2023-02-27T02:10:50;7.60;99.90
6260;DHT22;3163;51.516;4.000;2023-02-27T02:13:17;7.50;99.90
6260;DHT22;3163;51.516;4.000;2023-02-27T02:15:49;7.50;99.90
6260;DHT22;3163;51.516;4.000;2023-02-27T02:18:23;7.60;99.90
6260;DHT22;3163;51.516;4.000;2023-02-27T02:22:14;7.60;99.90
6260;DHT22;3163;51.516;4.000;2023-02-27T02:29:40;7.60;99.90
6260;DHT22;3163;51.516;4.000;2023-02-27T02:40:34;7.50;99.90
6260;DHT22;3163;51.516;4.000;2023-02-27T02:43:18;7.50;99.90
6260;DHT22;3163;51.516;4.000;2023-02-27T02:48:18;7.50;99.90
6260;DHT22;3163;51.516;4.000;2023-02-27T02:56:18;7.40;99.90
6260;DHT22;3163;51.516;4.000;2023-02-27T03:01:38;7.40;99.90
6260;DHT22;3163;51.516;4.000;2023-02-27T03:04:19;7.40;99.90
6260;DHT22;3163;51.516;4.000;2023-02-27T03:06:51;7.40;99.90
6260;DHT22;3163;51.516;4.000;2023-02-27T03:09:32;7.40;99.90
6260;DHT22;3163;51.516;4.000;2023-02-27T03:11:58;7.50;99.90
6260;DHT22;3163;51.516;4.000;2023-02-27T03:14:37;7.50;99.90
6260;DHT22;3163;51.516;4.000;2023-02-27T03:17:10;7.50;99.90
6260;DHT22;3163;51.516;4.000;2023-02-27T03:19:54;7.40;99.90
6260;DHT22;3163;51.516;4.000;2023-02-27T03:22:29;7.40;99.90
6260;DHT22;3163;51.516;4.000;2023-02-27T03:24:59;7.40;99.90
6260;DHT22;3163;51.516;4.000;2023-02-27T03:27:30;7.40;99.90
6260;DHT22;3163;51.516;4.000;2023-02-27T03:35:19;7.30;99.90
6260;DHT22;3163;51.516;4.000;2023-02-27T03:37:58;7.30;99.90
6260;DHT22;3163;51.516;4.000;2023-02-27T03:43:16;7.40;99.90
6260;DHT22;3163;51.516;4.000;2023-02-27T03:46:06;7.30;99.90
6260;DHT22;3163;51.516;4.000;2023-02-27T03:48:32;7.30;99.90
6260;DHT22;3163;51.516;4.000;2023-02-27T03:50:58;7.30;99.90
6260;DHT22;3163;51.516;4.000;2023-02-27T03:55:52;7.30;99.90
6260;DHT22;3163;51.516;4.000;2023-02-27T03:58:19;7.20;99.90
6260;DHT22;3163;51.516;4.000;2023-02-27T04:00:44;7.30;99.90
6260;DHT22;3163;51.516;4.000;2023-02-27T04:03:10;7.20;99.90
6260;DHT22;3163;51.516;4.000;2023-02-27T04:05:36;7.20;99.90
6260;DHT22;3163;51.516;4.000;2023-02-27T04:21:28;7.30;99.90
6260;DHT22;3163;51.516;4.000;2023-02-27T04:32:09;7.40;99.90
6260;DHT22;3163;51.516;4.000;2023-02-27T04:34:38;7.40;99.90
6260;DHT22;3163;51.516;4.000;2023-02-27T04:37:28;7.40;99.90
6260;DHT22;3163;51.516;4.000;2023-02-27T04:40:28;7.30;99.90
6260;DHT22;3163;51.516;4.000;2023-02-27T04:42:56;7.30;99.90
6260;DHT22;3163;51.516;4.000;2023-02-27T04:45:25;7.30;99.90
6260;DHT22;3163;51.516;4.000;2023-02-27T04:47:56;7.30;99.90
6260;DHT22;3163;51.516;4.000;2023-02-27T04:50:32;7.30;99.90
6260;DHT22;3163;51.516;4.000;2023-02-27T04:53:05;7.30;99.90
6260;DHT22;3163;51.516;4.000;2023-02-27T04:55:40;7.30;99.90
6260;DHT22;3163;51.516;4.000;2023-02-27T04:58:14;7.30;99.90
6260;DHT22;3163;51.516;4.000;2023-02-27T05:00:45;7.30;99.90
6260;DHT22;3163;51.516;4.000;2023-02-27T05:03:15;7.30;99.90
6260;DHT22;3163;51.516;4.000;2023-02-27T05:05:45;7.30;99.90
6260;DHT22;3163;51.516;4.000;2023-02-27T05:11:28;7.20;99.90
6260;DHT22;3163;51.516;4.000;2023-02-27T05:14:02;7.20;99.90
6260;DHT22;3163;51.516;4.000;2023-02-27T05:16:33;7.20;99.90
6260;DHT22;3163;51.516;4.000;2023-02-27T05:19:02;7.20;99.90
6260;DHT22;3163;51.516;4.000;2023-02-27T05:21:33;7.20;99.90
6260;DHT22;3163;51.516;4.000;2023-02-27T05:32:39;7.20;99.90
6260;DHT22;3163;51.516;4.000;2023-02-27T05:35:22;7.20;99.90
6260;DHT22;3163;51.516;4.000;2023-02-27T05:40:40;7.20;99.90
6260;DHT22;3163;51.516;4.000;2023-02-27T05:43:09;7.30;99.90
6260;DHT22;3163;51.516;4.000;2023-02-27T05:45:39;7.30;99.90
6260;DHT22;3163;51.516;4.000;2023-02-27T05:48:09;7.30;99.90
6260;DHT22;3163;51.516;4.000;2023-02-27T05:50:37;7.30;99.90
6260;DHT22;3163;51.516;4.000;2023-02-27T05:53:08;7.30;99.90
6260;DHT22;3163;51.516;4.000;2023-02-27T05:55:38;7.30;99.90
6260;DHT22;3163;51.516;4.000;2023-02-27T06:00:48;7.20;99.90
6260;DHT22;3163;51.516;4.000;2023-02-27T06:03:15;7.10;99.90
6260;DHT22;3163;51.516;4.000;2023-02-27T06:05:41;7.20;99.90
6260;DHT22;3163;51.516;4.000;2023-02-27T06:08:09;7.10;99.90
6260;DHT22;3163;51.516;4.000;2023-02-27T06:10:35;7.20;99.90
6260;DHT22;3163;51.516;4.000;2023-02-27T06:13:02;7.10;99.90
6260;DHT22;3163;51.516;4.000;2023-02-27T06:15:28;7.10;99.90
6260;DHT22;3163;51.516;4.000;2023-02-27T06:17:53;7.10;99.90
6260;DHT22;3163;51.516;4.000;2023-02-27T06:20:20;7.10;99.90
6260;DHT22;3163;51.516;4.000;2023-02-27T06:22:46;7.10;99.90
6260;DHT22;3163;51.516;4.000;2023-02-27T06:25:12;7.10;99.90
6260;DHT22;3163;51.516;4.000;2023-02-27T06:27:37;7.10;99.90
6260;DHT22;3163;51.516;4.000;2023-02-27T06:30:04;7.10;99.90
6260;DHT22;3163;51.516;4.000;2023-02-27T06:32:31;7.10;99.90
6260;DHT22;3163;51.516;4.000;2023-02-27T06:34:57;7.00;99.90
6260;DHT22;3163;51.516;4.000;2023-02-27T06:37:23;7.10;99.90
6260;DHT22;3163;51.516;4.000;2023-02-27T06:39:48;7.00;99.90
6260;DHT22;3163;51.516;4.000;2023-02-27T06:42:15;7.10;99.90
6260;DHT22;3163;51.516;4.000;2023-02-27T06:44:41;7.10;99.90
6260;DHT22;3163;51.516;4.000;2023-02-27T06:47:07;7.10;99.90
6260;DHT22;3163;51.516;4.000;2023-02-27T06:49:32;7.10;99.90
6260;DHT22;3163;51.516;4.000;2023-02-27T06:51:58;7.10;99.90
6260;DHT22;3163;51.516;4.000;2023-02-27T06:54:24;7.10;99.90
6260;DHT22;3163;51.516;4.000;2023-02-27T06:56:50;7.10;99.90
6260;DHT22;3163;51.516;4.000;2023-02-27T06:59:16;7.20;99.90
6260;DHT22;3163;51.516;4.000;2023-02-27T07:01:42;7.30;99.90
6260;DHT22;3163;51.516;4.000;2023-02-27T07:04:10;7.30;99.90
6260;DHT22;3163;51.516;4.000;2023-02-27T07:06:37;7.30;99.90
6260;DHT22;3163;51.516;4.000;2023-02-27T07:09:02;7.40;99.90
6260;DHT22;3163;51.516;4.000;2023-02-27T07:11:28;7.50;99.90
6260;DHT22;3163;51.516;4.000;2023-02-27T07:13:55;7.40;99.90
6260;DHT22;3163;51.516;4.000;2023-02-27T07:16:21;7.40;99.90
6260;DHT22;3163;51.516;4.000;2023-02-27T07:18:47;7.40;99.90
6260;DHT22;3163;51.516;4.000;2023-02-27T07:21:12;7.40;99.90
6260;DHT22;3163;51.516;4.000;2023-02-27T07:23:40;7.40;99.90
6260;DHT22;3163;51.516;4.000;2023-02-27T07:26:05;7.50;99.90
6260;DHT22;3163;51.516;4.000;2023-02-27T07:28:32;7.60;99.90
6260;DHT22;3163;51.516;4.000;2023-02-27T07:30:57;7.50;99.90
6260;DHT22;3163;51.516;4.000;2023-02-27T07:33:23;7.50;99.90
6260;DHT22;3163;51.516;4.000;2023-02-27T07:35:50;7.60;99.90
6260;DHT22;3163;51.516;4.000;2023-02-27T07:38:15;7.60;99.90
6260;DHT22;3163;51.516;4.000;2023-02-27T07:40:46;7.60;99.90
6260;DHT22;3163;51.516;4.000;2023-02-27T07:43:11;7.70;99.90
6260;DHT22;3163;51.516;4.000;2023-02-27T07:45:37;7.70;99.90
6260;DHT22;3163;51.516;4.000;2023-02-27T07:48:03;7.60;99.90
6260;DHT22;3163;51.516;4.000;2023-02-27T07:50:28;7.80;99.90
6260;DHT22;3163;51.516;4.000;2023-02-27T07:52:54;7.90;99.90
6260;DHT22;3163;51.516;4.000;2023-02-27T07:55:20;7.90;99.90
6260;DHT22;3163;51.516;4.000;2023-02-27T07:57:45;8.00;99.90
6260;DHT22;3163;51.516;4.000;2023-02-27T08:00:11;8.00;99.90
6260;DHT22;3163;51.516;4.000;2023-02-27T08:02:37;8.10;99.90
6260;DHT22;3163;51.516;4.000;2023-02-27T08:05:04;8.20;99.90
6260;DHT22;3163;51.516;4.000;2023-02-27T08:07:30;8.00;99.90
6260;DHT22;3163;51.516;4.000;2023-02-27T08:09:55;8.20;99.90
6260;DHT22;3163;51.516;4.000;2023-02-27T08:12:21;8.20;99.90
6260;DHT22;3163;51.516;4.000;2023-02-27T08:14:47;8.30;99.90
6260;DHT22;3163;51.516;4.000;2023-02-27T08:17:12;8.10;99.90
6260;DHT22;3163;51.516;4.000;2023-02-27T08:19:38;8.10;99.90
6260;DHT22;3163;51.516;4.000;2023-02-27T08:22:04;8.20;99.90
6260;DHT22;3163;51.516;4.000;2023-02-27T08:24:30;8.20;99.90
6260;DHT22;3163;51.516;4.000;2023-02-27T08:26:56;8.20;99.90
6260;DHT22;3163;51.516;4.000;2023-02-27T08:29:21;8.30;99.90
6260;DHT22;3163;51.516;4.000;2023-02-27T08:31:48;8.40;99.90
6260;DHT22;3163;51.516;4.000;2023-02-27T08:34:13;8.50;99.90
6260;DHT22;3163;51.516;4.000;2023-02-27T08:36:39;8.30;99.90
6260;DHT22;3163;51.516;4.000;2023-02-27T08:39:06;8.50;99.90
6260;DHT22;3163;51.516;4.000;2023-02-27T08:41:32;8.60;99.90
6260;DHT22;3163;51.516;4.000;2023-02-27T08:43:58;8.60;99.90
6260;DHT22;3163;51.516;4.000;2023-02-27T08:46:23;8.50;99.90
6260;DHT22;3163;51.516;4.000;2023-02-27T08:48:49;8.70;99.90
6260;DHT22;3163;51.516;4.000;2023-02-27T08:51:14;8.80;99.90
6260;DHT22;3163;51.516;4.000;2023-02-27T08:53:40;8.90;99.90
6260;DHT22;3163;51.516;4.000;2023-02-27T08:56:06;8.90;99.90
6260;DHT22;3163;51.516;4.000;2023-02-27T08:58:31;9.00;99.90
6260;DHT22;3163;51.516;4.000;2023-02-27T09:00:57;9.10;99.90
6260;DHT22;3163;51.516;4.000;2023-02-27T09:03:22;9.20;99.90
6260;DHT22;3163;51.516;4.000;2023-02-27T09:05:53;9.10;99.90
6260;DHT22;3163;51.516;4.000;2023-02-27T09:08:19;9.20;99.90
6260;DHT22;3163;51.516;4.000;2023-02-27T09:10:45;9.30;99.90
6260;DHT22;3163;51.516;4.000;2023-02-27T09:13:11;9.30;99.90
6260;DHT22;3163;51.516;4.000;2023-02-27T09:15:37;9.30;99.90
6260;DHT22;3163;51.516;4.000;2023-02-27T09:18:03;9.40;99.90
6260;DHT22;3163;51.516;4.000;2023-02-27T09:20:34;9.50;99.90
6260;DHT22;3163;51.516;4.000;2023-02-27T09:23:01;9.60;99.90
6260;DHT22;3163;51.516;4.000;2023-02-27T09:25:27;9.70;99.90
6260;DHT22;3163;51.516;4.000;2023-02-27T09:27:54;9.70;99.90
6260;DHT22;3163;51.516;4.000;2023-02-27T09:30:20;9.70;99.90
6260;DHT22;3163;51.516;4.000;2023-02-27T09:32:46;9.80;99.90
6260;DHT22;3163;51.516;4.000;2023-02-27T09:35:11;9.80;99.90
6260;DHT22;3163;51.516;4.000;2023-02-27T09:37:40;9.40;99.90
6260;DHT22;3163;51.516;4.000;2023-02-27T09:40:07;9.30;99.90
6260;DHT22;3163;51.516;4.000;2023-02-27T09:42:37;9.10;99.90
6260;DHT22;3163;51.516;4.000;2023-02-27T09:45:17;9.20;99.90
6260;DHT22;3163;51.516;4.000;2023-02-27T09:47:47;9.30;99.90
6260;DHT22;3163;51.516;4.000;2023-02-27T09:50:40;9.40;99.90
6260;DHT22;3163;51.516;4.000;2023-02-27T09:53:27;9.70;99.90
6260;DHT22;3163;51.516;4.000;2023-02-27T09:56:19;9.90;99.90
6260;DHT22;3163;51.516;4.000;2023-02-27T10:07:13;10.10;99.90
6260;DHT22;3163;51.516;4.000;2023-02-27T10:10:08;10.10;99.90
6260;DHT22;3163;51.516;4.000;2023-02-27T10:15:28;10.00;99.90
6260;DHT22;3163;51.516;4.000;2023-02-27T10:18:06;10.20;99.90
6260;DHT22;3163;51.516;4.000;2023-02-27T10:20:36;10.00;99.90
6260;DHT22;3163;51.516;4.000;2023-02-27T10:23:09;10.20;99.90
6260;DHT22;3163;51.516;4.000;2023-02-27T10:25:42;10.30;99.90
6260;DHT22;3163;51.516;4.000;2023-02-27T10:28:15;10.40;99.90
6260;DHT22;3163;51.516;4.000;2023-02-27T10:30:45;10.40;99.90
6260;DHT22;3163;51.516;4.000;2023-02-27T10:33:23;10.50;99.90
6260;DHT22;3163;51.516;4.000;2023-02-27T10:35:49;10.30;99.90
6260;DHT22;3163;51.516;4.000;2023-02-27T10:38:31;10.30;99.90
6260;DHT22;3163;51.516;4.000;2023-02-27T10:40:58;10.40;99.90
6260;DHT22;3163;51.516;4.000;2023-02-27T10:43:24;10.40;99.90
6260;DHT22;3163;51.516;4.000;2023-02-27T10:45:51;10.20;99.90
6260;DHT22;3163;51.516;4.000;2023-02-27T10:48:17;10.60;99.90
6260;DHT22;3163;51.516;4.000;2023-02-27T10:50:45;10.60;99.90
6260;DHT22;3163;51.516;4.000;2023-02-27T10:53:24;10.60;99.90
6260;DHT22;3163;51.516;4.000;2023-02-27T10:56:04;10.60;99.90
6260;DHT22;3163;51.516;4.000;2023-02-27T10:58:33;10.40;99.90
6260;DHT22;3163;51.516;4.000;2023-02-27T11:01:04;10.10;99.90
6260;DHT22;3163;51.516;4.000;2023-02-27T11:03:38;10.10;99.90
6260;DHT22;3163;51.516;4.000;2023-02-27T11:08:32;10.40;99.90
6260;DHT22;3163;51.516;4.000;2023-02-27T11:10:59;10.50;99.90
6260;DHT22;3163;51.516;4.000;2023-02-27T11:13:28;10.70;99.90
6260;DHT22;3163;51.516;4.000;2023-02-27T11:18:35;11.10;99.90
6260;DHT22;3163;51.516;4.000;2023-02-27T11:21:26;10.60;99.90
6260;DHT22;3163;51.516;4.000;2023-02-27T11:26:31;10.50;99.90
6260;DHT22;3163;51.516;4.000;2023-02-27T11:29:13;10.50;99.90
6260;DHT22;3163;51.516;4.000;2023-02-27T11:32:12;10.90;99.90
6260;DHT22;3163;51.516;4.000;2023-02-27T11:34:45;11.10;99.90
6260;DHT22;3163;51.516;4.000;2023-02-27T11:37:41;10.60;99.90
6260;DHT22;3163;51.516;4.000;2023-02-27T11:42:35;10.60;99.90
6260;DHT22;3163;51.516;4.000;2023-02-27T11:45:49;10.50;99.90
6260;DHT22;3163;51.516;4.000;2023-02-27T11:47:53;10.60;99.90
6260;DHT22;3163;51.516;4.000;2023-02-27T11:53:14;11.20;99.90
6260;DHT22;3163;51.516;4.000;2023-02-27T11:55:45;10.90;99.90
6260;DHT22;3163;51.516;4.000;2023-02-27T11:58:23;11.00;99.90
6260;DHT22;3163;51.516;4.000;2023-02-27T12:00:59;11.20;99.90
6260;DHT22;3163;51.516;4.000;2023-02-27T12:03:52;11.30;99.90
6260;DHT22;3163;51.516;4.000;2023-02-27T12:06:23;11.10;99.90
6260;DHT22;3163;51.516;4.000;2023-02-27T12:09:01;10.80;99.90
6260;DHT22;3163;51.516;4.000;2023-02-27T12:11:41;10.80;99.90
6260;DHT22;3163;51.516;4.000;2023-02-27T12:16:40;11.00;99.90
6260;DHT22;3163;51.516;4.000;2023-02-27T12:21:52;10.80;99.90
6260;DHT22;3163;51.516;4.000;2023-02-27T12:24:48;10.80;99.90
6260;DHT22;3163;51.516;4.000;2023-02-27T12:27:24;10.90;99.90
6260;DHT22;3163;51.516;4.000;2023-02-27T12:29:55;10.80;99.90
6260;DHT22;3163;51.516;4.000;2023-02-27T12:32:26;11.60;99.90
6260;DHT22;3163;51.516;4.000;2023-02-27T12:35:11;11.40;99.90
6260;DHT22;3163;51.516;4.000;2023-02-27T12:37:38;11.40;99.90
6260;DHT22;3163;51.516;4.000;2023-02-27T12:40:04;11.50;99.90
6260;DHT22;3163;51.516;4.000;2023-02-27T12:42:51;11.70;99.90
6260;DHT22;3163;51.516;4.000;2023-02-27T12:45:40;11.40;99.90
6260;DHT22;3163;51.516;4.000;2023-02-27T12:48:41;11.50;99.90
6260;DHT22;3163;51.516;4.000;2023-02-27T12:54:02;11.60;99.90
6260;DHT22;3163;51.516;4.000;2023-02-27T12:57:01;11.80;99.90
6260;DHT22;3163;51.516;4.000;2023-02-27T13:05:38;11.60;99.90
6260;DHT22;3163;51.516;4.000;2023-02-27T13:10:50;11.20;99.90
6260;DHT22;3163;51.516;4.000;2023-02-27T13:13:30;11.70;99.90
6260;DHT22;3163;51.516;4.000;2023-02-27T13:18:40;11.90;99.90
6260;DHT22;3163;51.516;4.000;2023-02-27T13:29:36;11.10;99.90
6260;DHT22;3163;51.516;4.000;2023-02-27T13:32:11;11.50;99.90
6260;DHT22;3163;51.516;4.000;2023-02-27T13:34:43;11.50;99.90
6260;DHT22;3163;51.516;4.000;2023-02-27T13:37:11;11.40;99.90
6260;DHT22;3163;51.516;4.000;2023-02-27T13:44:53;11.50;99.90
6260;DHT22;3163;51.516;4.000;2023-02-27T13:52:35;10.90;99.90
6260;DHT22;3163;51.516;4.000;2023-02-27T13:55:06;10.80;99.90
6260;DHT22;3163;51.516;4.000;2023-02-27T13:57:34;10.80;99.90
6260;DHT22;3163;51.516;4.000;2023-02-27T14:00:16;10.60;99.90
6260;DHT22;3163;51.516;4.000;2023-02-27T14:03:06;10.60;99.90
6260;DHT22;3163;51.516;4.000;2023-02-27T14:05:40;10.90;99.90
6260;DHT22;3163;51.516;4.000;2023-02-27T14:08:07;10.90;99.90
6260;DHT22;3163;51.516;4.000;2023-02-27T14:10:35;11.00;99.90
6260;DHT22;3163;51.516;4.000;2023-02-27T14:13:02;10.60;99.90
6260;DHT22;3163;51.516;4.000;2023-02-27T14:17:59;10.70;99.90
6260;DHT22;3163;51.516;4.000;2023-02-27T14:28:28;10.30;99.90
6260;DHT22;3163;51.516;4.000;2023-02-27T14:30:56;10.30;99.90
6260;DHT22;3163;51.516;4.000;2023-02-27T14:33:44;10.30;99.90
6260;DHT22;3163;51.516;4.000;2023-02-27T14:36:22;10.20;99.90
6260;DHT22;3163;51.516;4.000;2023-02-27T14:38:49;10.20;99.90
6260;DHT22;3163;51.516;4.000;2023-02-27T14:44:24;10.30;99.90
6260;DHT22;3163;51.516;4.000;2023-02-27T14:46:53;10.10;99.90
6260;DHT22;3163;51.516;4.000;2023-02-27T14:49:24;10.00;99.90
6260;DHT22;3163;51.516;4.000;2023-02-27T14:51:50;10.10;99.90
6260;DHT22;3163;51.516;4.000;2023-02-27T14:54:20;10.20;99.90
6260;DHT22;3163;51.516;4.000;2023-02-27T14:59:24;10.40;99.90
6260;DHT22;3163;51.516;4.000;2023-02-27T15:01:52;10.50;99.90
6260;DHT22;3163;51.516;4.000;2023-02-27T15:04:21;10.50;99.90
6260;DHT22;3163;51.516;4.000;2023-02-27T15:06:49;10.50;99.90
6260;DHT22;3163;51.516;4.000;2023-02-27T15:09:21;10.50;99.90
6260;DHT22;3163;51.516;4.000;2023-02-27T15:11:51;10.40;99.90
6260;DHT22;3163;51.516;4.000;2023-02-27T15:14:22;10.40;99.90
6260;DHT22;3163;51.516;4.000;2023-02-27T15:16:53;10.40;99.90
6260;DHT22;3163;51.516;4.000;2023-02-27T15:19:22;10.10;99.90
6260;DHT22;3163;51.516;4.000;2023-02-27T15:21:59;10.20;99.90
6260;DHT22;3163;51.516;4.000;2023-02-27T15:24:31;10.30;99.90
6260;DHT22;3163;51.516;4.000;2023-02-27T15:27:01;10.30;99.90
6260;DHT22;3163;51.516;4.000;2023-02-27T15:29:48;10.30;99.90
6260;DHT22;3163;51.516;4.000;2023-02-27T15:32:30;10.20;99.90
6260;DHT22;3163;51.516;4.000;2023-02-27T15:34:57;10.30;99.90
6260;DHT22;3163;51.516;4.000;2023-02-27T15:37:27;10.10;99.90
6260;DHT22;3163;51.516;4.000;2023-02-27T15:39:55;10.00;99.90
6260;DHT22;3163;51.516;4.000;2023-02-27T15:42:24;10.20;99.90
6260;DHT22;3163;51.516;4.000;2023-02-27T15:44:50;10.30;99.90
6260;DHT22;3163;51.516;4.000;2023-02-27T15:47:23;10.30;99.90
6260;DHT22;3163;51.516;4.000;2023-02-27T15:49:53;10.40;99.90
6260;DHT22;3163;51.516;4.000;2023-02-27T15:52:24;10.30;99.90
6260;DHT22;3163;51.516;4.000;2023-02-27T15:54:52;10.40;99.90
6260;DHT22;3163;51.516;4.000;2023-02-27T15:57:19;10.30;99.90
6260;DHT22;3163;51.516;4.000;2023-02-27T15:59:46;10.30;99.90
6260;DHT22;3163;51.516;4.000;2023-02-27T16:02:17;10.40;99.90
6260;DHT22;3163;51.516;4.000;2023-02-27T16:04:45;10.20;99.90
6260;DHT22;3163;51.516;4.000;2023-02-27T16:07:14;10.30;99.90
6260;DHT22;3163;51.516;4.000;2023-02-27T16:09:40;10.20;99.90
6260;DHT22;3163;51.516;4.000;2023-02-27T16:14:50;10.20;99.90
6260;DHT22;3163;51.516;4.000;2023-02-27T16:17:31;10.20;99.90
6260;DHT22;3163;51.516;4.000;2023-02-27T16:20:00;10.20;99.90
6260;DHT22;3163;51.516;4.000;2023-02-27T16:22:26;10.10;99.90
6260;DHT22;3163;51.516;4.000;2023-02-27T16:24:52;10.00;99.90
6260;DHT22;3163;51.516;4.000;2023-02-27T16:27:29;9.90;99.90
6260;DHT22;3163;51.516;4.000;2023-02-27T16:29:57;9.80;99.90
6260;DHT22;3163;51.516;4.000;2023-02-27T16:32:34;9.70;99.90
6260;DHT22;3163;51.516;4.000;2023-02-27T16:35:22;9.90;99.90
6260;DHT22;3163;51.516;4.000;2023-02-27T16:37:49;9.90;99.90
6260;DHT22;3163;51.516;4.000;2023-02-27T16:40:23;10.00;99.90
6260;DHT22;3163;51.516;4.000;2023-02-27T16:42:50;9.90;99.90
6260;DHT22;3163;51.516;4.000;2023-02-27T16:45:18;10.00;99.90
6260;DHT22;3163;51.516;4.000;2023-02-27T16:47:47;10.00;99.90
6260;DHT22;3163;51.516;4.000;2023-02-27T16:50:21;9.90;99.90
6260;DHT22;3163;51.516;4.000;2023-02-27T16:52:48;9.90;99.90
6260;DHT22;3163;51.516;4.000;2023-02-27T16:55:13;9.90;99.90
6260;DHT22;3163;51.516;4.000;2023-02-27T16:57:39;9.80;99.90
6260;DHT22;3163;51.516;4.000;2023-02-27T17:00:05;9.90;99.90
6260;DHT22;3163;51.516;4.000;2023-02-27T17:02:34;9.80;99.90
6260;DHT22;3163;51.516;4.000;2023-02-27T17:05:00;9.80;99.90
6260;DHT22;3163;51.516;4.000;2023-02-27T17:07:26;9.80;99.90
6260;DHT22;3163;51.516;4.000;2023-02-27T17:09:52;9.70;99.90
6260;DHT22;3163;51.516;4.000;2023-02-27T17:12:17;9.70;99.90
6260;DHT22;3163;51.516;4.000;2023-02-27T17:14:43;9.50;99.90
6260;DHT22;3163;51.516;4.000;2023-02-27T17:17:09;9.50;99.90
6260;DHT22;3163;51.516;4.000;2023-02-27T17:19:35;9.50;99.90
6260;DHT22;3163;51.516;4.000;2023-02-27T17:22:01;9.60;99.90
6260;DHT22;3163;51.516;4.000;2023-02-27T17:24:27;9.60;99.90
6260;DHT22;3163;51.516;4.000;2023-02-27T17:26:53;9.70;99.90
6260;DHT22;3163;51.516;4.000;2023-02-27T17:29:19;9.70;99.90
6260;DHT22;3163;51.516;4.000;2023-02-27T17:31:44;9.50;99.90
6260;DHT22;3163;51.516;4.000;2023-02-27T17:34:10;9.70;99.90
6260;DHT22;3163;51.516;4.000;2023-02-27T17:36:36;9.70;99.90
6260;DHT22;3163;51.516;4.000;2023-02-27T17:39:03;9.70;99.90
6260;DHT22;3163;51.516;4.000;2023-02-27T17:41:30;9.60;99.90
6260;DHT22;3163;51.516;4.000;2023-02-27T17:43:57;9.70;99.90
6260;DHT22;3163;51.516;4.000;2023-02-27T17:46:23;9.60;99.90
6260;DHT22;3163;51.516;4.000;2023-02-27T17:48:49;9.60;99.90
6260;DHT22;3163;51.516;4.000;2023-02-27T17:51:17;9.60;99.90
6260;DHT22;3163;51.516;4.000;2023-02-27T17:53:43;9.60;99.90
6260;DHT22;3163;51.516;4.000;2023-02-27T17:56:10;9.50;99.90
6260;DHT22;3163;51.516;4.000;2023-02-27T17:58:36;9.40;99.90
6260;DHT22;3163;51.516;4.000;2023-02-27T18:01:06;9.20;99.90
6260;DHT22;3163;51.516;4.000;2023-02-27T18:03:33;9.20;99.90
6260;DHT22;3163;51.516;4.000;2023-02-27T18:05:59;9.10;99.90
6260;DHT22;3163;51.516;4.000;2023-02-27T18:08:25;9.10;99.90
6260;DHT22;3163;51.516;4.000;2023-02-27T18:10:51;9.10;99.90
6260;DHT22;3163;51.516;4.000;2023-02-27T18:13:18;9.20;99.90
6260;DHT22;3163;51.516;4.000;2023-02-27T18:15:44;9.20;99.90
6260;DHT22;3163;51.516;4.000;2023-02-27T18:18:11;9.30;99.90
6260;DHT22;3163;51.516;4.000;2023-02-27T18:20:38;9.20;99.90
6260;DHT22;3163;51.516;4.000;2023-02-27T18:23:05;9.20;99.90
6260;DHT22;3163;51.516;4.000;2023-02-27T18:25:32;9.20;99.90
6260;DHT22;3163;51.516;4.000;2023-02-27T18:27:57;9.20;99.90
6260;DHT22;3163;51.516;4.000;2023-02-27T18:30:23;9.10;99.90
6260;DHT22;3163;51.516;4.000;2023-02-27T18:32:49;9.10;99.90
6260;DHT22;3163;51.516;4.000;2023-02-27T18:35:15;9.10;99.90
6260;DHT22;3163;51.516;4.000;2023-02-27T18:37:41;9.00;99.90
6260;DHT22;3163;51.516;4.000;2023-02-27T18:40:07;9.00;99.90
6260;DHT22;3163;51.516;4.000;2023-02-27T18:42:33;9.00;99.90
6260;DHT22;3163;51.516;4.000;2023-02-27T18:44:59;8.90;99.90
6260;DHT22;3163;51.516;4.000;2023-02-27T18:47:25;8.80;99.90
6260;DHT22;3163;51.516;4.000;2023-02-27T18:49:53;8.80;99.90
6260;DHT22;3163;51.516;4.000;2023-02-27T18:52:18;8.70;99.90
6260;DHT22;3163;51.516;4.000;2023-02-27T18:54:44;8.70;99.90
6260;DHT22;3163;51.516;4.000;2023-02-27T18:57:09;8.70;99.90
6260;DHT22;3163;51.516;4.000;2023-02-27T18:59:35;8.70;99.90
6260;DHT22;3163;51.516;4.000;2023-02-27T19:02:01;8.70;99.90
6260;DHT22;3163;51.516;4.000;2023-02-27T19:04:26;8.60;99.90